Time;durP1;ratioP1;P1;durP2;ratioP2;P2;SDS_P1;SDS_P2;PMS_P1;PMS_P2;Temp;Humidity;BMP_temperature;BMP_pressure;BME280_temperature;BME280_humidity;BME280_pressure;Samples;Min_cycle;Max_cycle;Signal;HPM_P1;HPM_P2
2022/03/04 00:02:09;;;;;;;17.50;8.27;;;2.20;99.90;;;;;;5036173;28;20025;-71
2022/03/04 00:04:37;;;;;;;14.27;8.70;;;2.20;99.90;;;;;;5036629;28;20494;-70
2022/03/04 00:07:03;;;;;;;13.98;7.25;;;2.20;99.90;;;;;;5037162;28;20025;-71
2022/03/04 00:09:29;;;;;;;14.68;7.13;;;2.10;99.90;;;;;;5036460;28;20493;-70
2022/03/04 00:11:54;;;;;;;12.18;6.65;;;2.10;99.90;;;;;;5038163;28;20040;-71
2022/03/04 00:14:20;;;;;;;13.10;7.47;;;2.10;99.90;;;;;;5037668;28;20083;-71
2022/03/04 00:16:45;;;;;;;15.43;7.60;;;2.00;99.90;;;;;;5037233;28;20056;-71
2022/03/04 00:19:12;;;;;;;12.00;7.35;;;2.10;99.90;;;;;;5037844;28;20151;-71
2022/03/04 00:21:44;;;;;;;12.82;6.50;;;2.00;99.90;;;;;;5037645;28;20044;-71
2022/03/04 00:24:11;;;;;;;10.98;5.82;;;2.00;99.90;;;;;;5036396;28;20067;-70
2022/03/04 00:26:37;;;;;;;12.15;5.63;;;2.00;99.90;;;;;;5034794;28;20029;-71
2022/03/04 00:29:03;;;;;;;11.30;5.85;;;2.00;99.90;;;;;;5036497;28;20029;-71
2022/03/04 00:31:29;;;;;;;;;;;2.00;99.90;;;;;;5036816;28;20151;-70
2022/03/04 00:33:55;;;;;;;11.55;4.78;;;1.90;99.90;;;;;;5037640;28;20011;-70
2022/03/04 00:36:22;;;;;;;9.32;4.97;;;1.90;99.90;;;;;;5034503;28;20549;-70
2022/03/04 00:38:49;;;;;;;9.68;5.10;;;1.80;99.90;;;;;;5038120;28;20028;-71
2022/03/04 00:41:17;;;;;;;14.73;6.07;;;1.80;99.90;;;;;;5033480;28;20456;-70
2022/03/04 00:43:43;;;;;;;12.60;6.35;;;1.80;99.90;;;;;;5038252;28;20082;-70
2022/03/04 00:46:09;;;;;;;7.00;3.95;;;1.80;99.90;;;;;;5036548;28;20033;-71
2022/03/04 00:48:34;;;;;;;8.80;5.18;;;1.80;99.90;;;;;;5035279;28;20037;-70
2022/03/04 00:51:00;;;;;;;10.90;5.45;;;1.80;99.90;;;;;;5035489;28;20517;-71
2022/03/04 00:53:25;;;;;;;9.02;5.22;;;1.80;99.90;;;;;;5037018;28;20113;-71
2022/03/04 00:55:51;;;;;;;11.18;5.07;;;1.80;99.90;;;;;;5037629;28;20037;-70
2022/03/04 00:58:17;;;;;;;10.13;5.75;;;1.80;99.90;;;;;;5033732;28;20029;-71
2022/03/04 01:00:42;;;;;;;8.90;4.78;;;1.90;99.90;;;;;;5038088;28;20080;-70
2022/03/04 01:03:08;;;;;;;9.40;4.82;;;1.90;99.90;;;;;;5035542;28;20044;-70
2022/03/04 01:05:33;;;;;;;8.52;4.38;;;1.90;99.90;;;;;;5030991;28;20044;-70
2022/03/04 01:07:59;;;;;;;9.38;5.20;;;1.90;99.90;;;;;;5034353;28;20343;-70
2022/03/04 01:10:24;;;;;;;10.43;6.03;;;1.90;99.90;;;;;;5036002;28;20025;-70
2022/03/04 01:12:50;;;;;;;9.77;5.55;;;2.00;99.90;;;;;;5034367;28;20152;-71
2022/03/04 01:15:15;;;;;;;7.95;4.57;;;2.00;99.90;;;;;;5035388;28;20039;-71
2022/03/04 01:17:41;;;;;;;12.30;4.75;;;2.00;99.90;;;;;;5033221;28;20519;-70
2022/03/04 01:20:07;;;;;;;6.35;3.95;;;2.00;99.90;;;;;;5037105;28;20111;-70
2022/03/04 01:22:33;;;;;;;11.98;5.93;;;1.90;99.90;;;;;;5035833;28;20519;-71
2022/03/04 01:24:58;;;;;;;9.07;5.10;;;1.90;99.90;;;;;;5034651;28;20037;-70
2022/03/04 01:27:24;;;;;;;8.10;4.50;;;2.00;99.90;;;;;;5035404;28;20048;-71
2022/03/04 01:29:50;;;;;;;7.80;3.85;;;2.00;99.90;;;;;;5037201;28;20120;-70
2022/03/04 01:32:15;;;;;;;7.85;3.90;;;2.00;99.90;;;;;;5032705;28;20456;-70
2022/03/04 01:34:41;;;;;;;9.32;5.65;;;2.00;99.90;;;;;;5035216;28;20037;-71
2022/03/04 01:37:07;;;;;;;;;;;2.00;99.90;;;;;;5036236;28;20091;-70
2022/03/04 01:39:33;;;;;;;6.32;3.10;;;2.00;99.90;;;;;;5034841;28;19913;-70
2022/03/04 01:41:58;;;;;;;8.68;4.75;;;2.00;99.90;;;;;;5036299;28;20079;-70
2022/03/04 01:44:24;;;;;;;11.18;4.25;;;2.00;99.90;;;;;;5036876;28;20045;-71
2022/03/04 01:46:50;;;;;;;7.47;4.22;;;2.00;99.90;;;;;;5032616;28;20444;-71
2022/03/04 01:49:16;;;;;;;10.38;5.90;;;2.10;99.90;;;;;;5032817;28;20029;-70
2022/03/04 01:51:41;;;;;;;;;;;2.00;99.90;;;;;;5034352;28;20080;-71
2022/03/04 01:54:07;;;;;;;8.35;4.18;;;2.00;99.90;;;;;;5036255;28;19905;-70
2022/03/04 01:56:33;;;;;;;11.02;4.38;;;2.00;99.90;;;;;;5035906;28;20087;-70
2022/03/04 01:58:58;;;;;;;12.40;5.00;;;2.00;99.90;;;;;;5036308;28;20171;-70
2022/03/04 02:01:24;;;;;;;12.15;4.90;;;2.00;99.90;;;;;;5032549;28;20142;-71
2022/03/04 02:03:49;;;;;;;8.93;5.47;;;2.00;99.90;;;;;;5030268;28;20394;-70
2022/03/04 02:06:16;;;;;;;9.02;4.93;;;2.10;99.90;;;;;;5034342;28;20502;-70
2022/03/04 02:08:41;;;;;;;11.82;6.05;;;2.10;99.90;;;;;;5032903;28;20032;-70
2022/03/04 02:11:07;;;;;;;14.82;8.20;;;2.10;99.90;;;;;;5032851;28;20024;-70
2022/03/04 02:13:34;;;;;;;17.05;7.03;;;2.10;99.90;;;;;;5034572;28;20033;-71
2022/03/04 02:16:00;;;;;;;17.95;9.25;;;2.10;99.90;;;;;;5033489;28;20033;-70
2022/03/04 02:18:25;;;;;;;44.75;24.05;;;2.10;99.90;;;;;;5034799;28;20033;-70
2022/03/04 02:20:52;;;;;;;47.55;24.10;;;2.10;99.90;;;;;;5035925;28;20044;-70
2022/03/04 02:23:19;;;;;;;20.50;12.10;;;2.10;99.90;;;;;;5033655;28;20035;-70
2022/03/04 02:25:50;;;;;;;29.15;15.68;;;2.10;99.90;;;;;;5034875;28;20050;-70
2022/03/04 02:28:17;;;;;;;24.15;11.98;;;2.20;99.90;;;;;;5033506;28;20584;-71
2022/03/04 02:30:43;;;;;;;18.60;9.45;;;2.20;99.90;;;;;;5034288;28;20111;-71
2022/03/04 02:33:09;;;;;;;13.48;7.38;;;2.30;99.90;;;;;;5034294;28;20073;-70
2022/03/04 02:35:35;;;;;;;13.48;7.20;;;2.30;99.90;;;;;;5034934;28;20172;-71
2022/03/04 02:38:01;;;;;;;16.60;7.13;;;2.30;99.90;;;;;;5031909;28;20029;-70
2022/03/04 02:40:27;;;;;;;10.15;6.03;;;2.20;99.90;;;;;;5034760;28;20059;-71
2022/03/04 02:42:53;;;;;;;;;;;2.20;99.90;;;;;;5034224;28;20052;-70
2022/03/04 02:45:18;;;;;;;10.63;5.50;;;2.20;99.90;;;;;;5033270;28;19909;-70
2022/03/04 02:47:44;;;;;;;8.20;4.65;;;2.20;99.90;;;;;;5000665;28;999883;-70
2022/03/04 02:50:10;;;;;;;16.13;7.40;;;2.10;99.90;;;;;;5035552;28;20049;-70
2022/03/04 02:52:36;;;;;;;9.43;5.68;;;2.10;99.90;;;;;;5037918;28;20231;-71
2022/03/04 02:55:02;;;;;;;11.32;5.55;;;2.10;99.90;;;;;;5035608;28;20136;-70
2022/03/04 02:57:27;;;;;;;14.15;6.65;;;2.20;99.90;;;;;;5038829;28;20028;-70
2022/03/04 02:59:53;;;;;;;8.98;5.25;;;2.20;99.90;;;;;;5039514;28;20025;-70
2022/03/04 03:02:18;;;;;;;10.13;5.40;;;2.20;99.90;;;;;;5035414;28;20099;-70
2022/03/04 03:04:44;;;;;;;12.10;6.13;;;2.20;99.90;;;;;;5037415;28;20087;-71
2022/03/04 03:07:09;;;;;;;18.45;8.20;;;2.20;99.90;;;;;;5038589;28;20038;-70
2022/03/04 03:09:35;;;;;;;13.25;5.90;;;2.20;99.90;;;;;;5040184;28;20021;-70
2022/03/04 03:12:00;;;;;;;8.95;6.90;;;2.20;99.90;;;;;;5035685;28;20020;-71
2022/03/04 03:14:26;;;;;;;10.80;6.47;;;2.20;99.90;;;;;;5039954;28;20052;-70
2022/03/04 03:16:52;;;;;;;11.00;6.30;;;2.10;99.90;;;;;;5035742;28;20120;-71
2022/03/04 03:19:17;;;;;;;11.88;5.47;;;2.10;99.90;;;;;;5036992;28;20036;-70
2022/03/04 03:21:43;;;;;;;8.73;4.95;;;2.10;99.90;;;;;;5034793;28;20448;-71
2022/03/04 03:24:08;;;;;;;8.60;4.72;;;2.10;99.90;;;;;;5039562;28;20220;-71
2022/03/04 03:26:34;;;;;;;9.68;5.30;;;2.10;99.90;;;;;;5037375;28;20037;-71
2022/03/04 03:28:59;;;;;;;13.50;5.28;;;2.20;99.90;;;;;;5038536;28;20017;-71
2022/03/04 03:31:25;;;;;;;11.27;6.40;;;2.20;99.90;;;;;;5037011;28;20621;-70
2022/03/04 03:33:50;;;;;;;10.90;6.70;;;2.10;99.90;;;;;;5040041;28;20032;-70
2022/03/04 03:36:16;;;;;;;12.75;5.88;;;2.10;99.90;;;;;;5037863;28;20060;-71
2022/03/04 03:38:41;;;;;;;10.80;6.18;;;2.10;99.90;;;;;;5040742;28;20070;-70
2022/03/04 03:41:07;;;;;;;9.15;4.78;;;2.10;99.90;;;;;;5035575;28;20401;-70
2022/03/04 03:43:32;;;;;;;10.25;5.18;;;2.10;99.90;;;;;;5038617;28;20293;-70
2022/03/04 03:45:58;;;;;;;10.10;4.95;;;2.10;99.90;;;;;;5035929;28;20029;-70
2022/03/04 03:48:23;;;;;;;11.82;5.40;;;2.10;99.90;;;;;;5039960;28;20032;-70
2022/03/04 03:50:49;;;;;;;12.07;4.43;;;2.20;99.90;;;;;;5038794;28;20036;-70
2022/03/04 03:53:14;;;;;;;14.30;6.38;;;2.20;99.90;;;;;;5036838;28;20060;-70
2022/03/04 03:55:40;;;;;;;15.13;6.88;;;2.20;99.90;;;;;;5036198;28;20502;-71
2022/03/04 03:58:06;;;;;;;11.75;5.90;;;2.20;99.90;;;;;;5038643;28;20079;-70
2022/03/04 04:00:31;;;;;;;13.50;5.32;;;2.10;99.90;;;;;;5032662;28;20037;-70
2022/03/04 04:02:57;;;;;;;11.27;6.32;;;2.10;99.90;;;;;;5034093;28;20120;-70
2022/03/04 04:05:22;;;;;;;8.20;5.28;;;2.10;99.90;;;;;;5036690;28;20030;-70
2022/03/04 04:07:48;;;;;;;10.52;6.15;;;2.10;99.90;;;;;;5037320;28;20112;-71
2022/03/04 04:10:13;;;;;;;9.82;5.53;;;2.00;99.90;;;;;;5036965;28;20021;-70
2022/03/04 04:12:39;;;;;;;14.60;6.95;;;1.90;99.90;;;;;;5036176;28;20115;-71
2022/03/04 04:15:06;;;;;;;11.98;6.30;;;1.90;99.90;;;;;;5038027;28;20032;-71
2022/03/04 04:17:31;;;;;;;9.07;5.57;;;1.80;99.90;;;;;;5037313;28;20021;-71
2022/03/04 04:19:57;;;;;;;15.38;7.45;;;1.80;99.90;;;;;;5035628;28;20235;-70
2022/03/04 04:22:22;;;;;;;8.93;5.22;;;1.80;99.90;;;;;;5036210;28;20442;-70
2022/03/04 04:24:48;;;;;;;13.00;5.50;;;1.80;99.90;;;;;;5037676;28;20048;-71
2022/03/04 04:27:13;;;;;;;10.25;6.97;;;1.70;99.90;;;;;;5037131;28;20032;-70
2022/03/04 04:29:39;;;;;;;10.27;6.40;;;1.70;99.90;;;;;;5036701;28;20108;-70
2022/03/04 04:32:04;;;;;;;12.70;5.82;;;1.70;99.90;;;;;;5037233;28;20037;-70
2022/03/04 04:34:30;;;;;;;10.45;5.90;;;1.70;99.90;;;;;;5037367;28;20485;-71
2022/03/04 04:36:55;;;;;;;10.38;5.72;;;1.70;99.90;;;;;;5036613;28;20124;-70
2022/03/04 04:39:21;;;;;;;8.82;4.75;;;1.70;99.90;;;;;;5035718;28;20025;-70
2022/03/04 04:41:46;;;;;;;8.75;5.22;;;1.60;99.90;;;;;;5036361;28;20034;-71
2022/03/04 04:44:12;;;;;;;13.38;7.72;;;1.60;99.90;;;;;;5036966;28;20056;-71
2022/03/04 04:46:38;;;;;;;8.15;4.97;;;1.60;99.90;;;;;;5036467;28;20474;-71
2022/03/04 04:49:03;;;;;;;10.93;6.05;;;1.60;99.90;;;;;;5037987;28;20036;-71
2022/03/04 04:51:29;;;;;;;15.07;6.03;;;1.60;99.90;;;;;;5037359;28;20366;-71
2022/03/04 04:53:54;;;;;;;14.57;5.53;;;1.60;99.90;;;;;;5035391;28;20025;-70
2022/03/04 04:56:21;;;;;;;8.48;5.63;;;1.60;99.90;;;;;;5037844;28;20033;-71
2022/03/04 04:58:46;;;;;;;11.80;7.90;;;1.50;99.90;;;;;;5037225;28;20057;-71
2022/03/04 05:01:12;;;;;;;11.65;6.43;;;1.50;99.90;;;;;;5030298;28;20110;-71
2022/03/04 05:03:37;;;;;;;13.80;7.25;;;1.60;99.90;;;;;;5034357;28;20029;-70
2022/03/04 05:06:03;;;;;;;14.55;7.47;;;1.60;99.90;;;;;;5036577;28;20021;-71
2022/03/04 05:08:29;;;;;;;9.52;5.25;;;1.60;99.90;;;;;;5037811;28;20051;-71
2022/03/04 05:10:56;;;;;;;11.23;5.35;;;1.60;99.90;;;;;;5035076;28;20025;-71
2022/03/04 05:13:21;;;;;;;12.75;6.07;;;1.50;99.90;;;;;;5036076;28;20663;-71
2022/03/04 05:15:48;;;;;;;11.70;6.57;;;1.50;99.90;;;;;;5037091;28;20164;-71
2022/03/04 05:18:13;;;;;;;11.98;6.82;;;1.50;99.90;;;;;;5037115;28;20037;-71
2022/03/04 05:20:40;;;;;;;11.93;6.50;;;1.50;99.90;;;;;;5034333;28;20025;-71
2022/03/04 05:23:05;;;;;;;;;;;1.50;99.90;;;;;;5036315;28;20033;-71
2022/03/04 05:25:30;;;;;;;12.95;6.40;;;1.50;99.90;;;;;;5035223;28;19932;-71
2022/03/04 05:27:56;;;;;;;16.65;8.43;;;1.50;99.90;;;;;;5030998;28;20038;-71
2022/03/04 05:30:22;;;;;;;15.00;7.53;;;1.50;99.90;;;;;;5033583;28;20072;-70
2022/03/04 05:32:47;;;;;;;10.98;7.07;;;1.50;99.90;;;;;;5035197;28;20036;-71
2022/03/04 05:35:13;;;;;;;9.30;5.78;;;1.50;99.90;;;;;;5031876;28;20048;-70
2022/03/04 05:37:39;;;;;;;10.38;6.15;;;1.50;99.90;;;;;;5029453;28;20033;-70
2022/03/04 05:40:05;;;;;;;16.05;7.95;;;1.40;99.90;;;;;;5033125;28;20133;-71
2022/03/04 05:42:31;;;;;;;10.85;5.97;;;1.40;99.90;;;;;;5033753;28;20094;-72
2022/03/04 05:44:56;;;;;;;11.77;6.28;;;1.50;99.90;;;;;;5033774;28;20345;-71
2022/03/04 05:47:22;;;;;;;11.57;5.85;;;1.50;99.90;;;;;;5032793;28;20404;-71
2022/03/04 05:49:47;;;;;;;13.30;7.78;;;1.50;99.90;;;;;;5034974;28;20021;-72
2022/03/04 05:52:13;;;;;;;10.45;5.97;;;1.50;99.90;;;;;;5033700;28;20029;-72
2022/03/04 05:54:38;;;;;;;11.18;6.38;;;1.60;99.90;;;;;;5037885;28;20029;-72
2022/03/04 05:57:04;;;;;;;11.23;6.00;;;1.50;99.90;;;;;;5030621;28;20065;-71
2022/03/04 05:59:30;;;;;;;15.48;7.13;;;1.60;99.90;;;;;;5036150;28;20475;-72
2022/03/04 06:01:56;;;;;;;14.25;6.22;;;1.60;99.90;;;;;;5034320;28;20128;-72
2022/03/04 06:04:21;;;;;;;12.32;6.40;;;1.60;99.90;;;;;;5033378;28;20036;-71
2022/03/04 06:06:47;;;;;;;15.20;6.60;;;1.60;99.90;;;;;;5035345;28;20132;-72
2022/03/04 06:09:12;;;;;;;10.20;6.35;;;1.70;99.90;;;;;;5036628;28;20397;-71
2022/03/04 06:11:38;;;;;;;9.77;6.10;;;1.60;99.90;;;;;;5034412;28;20033;-71
2022/03/04 06:14:04;;;;;;;14.93;7.03;;;1.70;99.90;;;;;;5035939;28;20025;-72
2022/03/04 06:16:29;;;;;;;11.05;5.85;;;1.70;99.90;;;;;;5034100;28;20032;-71
2022/03/04 06:18:55;;;;;;;14.65;9.82;;;1.70;99.90;;;;;;5035887;28;20025;-72
2022/03/04 06:21:21;;;;;;;13.38;6.32;;;1.80;99.90;;;;;;5033818;28;20346;-71
2022/03/04 06:23:47;;;;;;;;;;;1.80;99.90;;;;;;5034182;28;20113;-73
2022/03/04 06:26:13;;;;;;;12.38;6.10;;;1.70;99.90;;;;;;5036393;28;19987;-72
2022/03/04 06:28:39;;;;;;;12.98;7.57;;;1.80;99.90;;;;;;5036996;28;20584;-72
2022/03/04 06:31:05;;;;;;;12.02;6.03;;;1.80;99.90;;;;;;5038427;28;20032;-72
2022/03/04 06:33:30;;;;;;;12.27;7.30;;;1.80;99.90;;;;;;5036507;28;20037;-72
2022/03/04 06:36:01;;;;;;;11.45;7.00;;;1.80;99.90;;;;;;5039170;28;20033;-72
2022/03/04 06:38:26;;;;;;;10.02;6.50;;;1.80;99.90;;;;;;5039658;28;20031;-72
2022/03/04 06:40:52;;;;;;;11.20;7.60;;;1.80;99.90;;;;;;5040130;28;20037;-72
2022/03/04 06:43:18;;;;;;;18.05;7.93;;;1.80;99.90;;;;;;5037154;28;20061;-71
2022/03/04 06:45:46;;;;;;;16.67;8.63;;;1.90;99.90;;;;;;5039257;28;20053;-72
2022/03/04 06:48:13;;;;;;;13.90;6.90;;;2.00;99.90;;;;;;5039624;28;20109;-72
2022/03/04 06:50:39;;;;;;;12.63;7.35;;;2.00;99.90;;;;;;5040785;28;20132;-72
2022/03/04 06:53:05;;;;;;;18.92;8.23;;;2.00;99.90;;;;;;5040465;28;20036;-72
2022/03/04 06:55:32;;;;;;;14.38;7.80;;;2.00;99.90;;;;;;5040238;28;20041;-72
2022/03/04 06:57:57;;;;;;;15.73;7.88;;;2.00;99.90;;;;;;5039872;28;20029;-72
2022/03/04 07:00:25;;;;;;;14.57;7.72;;;2.10;99.90;;;;;;5040342;28;20032;-72
2022/03/04 07:02:51;;;;;;;16.73;8.23;;;2.10;99.90;;;;;;5038200;28;20040;-72
2022/03/04 07:05:17;;;;;;;19.55;8.10;;;2.10;99.90;;;;;;5038332;28;20047;-72
2022/03/04 07:07:43;;;;;;;9.93;6.32;;;2.10;99.90;;;;;;5039645;28;20477;-72
2022/03/04 07:10:09;;;;;;;15.23;7.05;;;2.10;99.90;;;;;;5037770;28;20121;-72
2022/03/04 07:12:41;;;;;;;13.43;7.53;;;2.10;99.90;;;;;;5036169;28;20043;-72
2022/03/04 07:15:15;;;;;;;13.75;8.40;;;2.20;99.90;;;;;;5036849;28;20350;-72
2022/03/04 07:17:40;;;;;;;12.93;7.07;;;2.10;99.90;;;;;;5039914;28;20029;-71
2022/03/04 07:20:08;;;;;;;14.43;5.97;;;2.20;99.90;;;;;;5040675;28;20094;-70
2022/03/04 07:22:35;;;;;;;10.40;6.43;;;2.10;99.90;;;;;;5035275;28;20048;-78
2022/03/04 07:25:06;;;;;;;12.40;6.40;;;2.10;99.90;;;;;;5040697;28;20021;-78
2022/03/04 07:27:36;;;;;;;17.63;7.07;;;2.10;99.90;;;;;;5036484;28;20025;-78
2022/03/04 07:30:05;;;;;;;10.05;6.80;;;2.20;99.90;;;;;;5038505;28;20021;-76
2022/03/04 07:32:32;;;;;;;14.73;8.27;;;2.30;99.90;;;;;;5036265;28;20040;-76
2022/03/04 07:34:57;;;;;;;12.80;7.05;;;2.30;99.90;;;;;;5039470;28;20037;-75
2022/03/04 07:37:23;;;;;;;19.73;8.18;;;2.40;99.90;;;;;;5036583;28;20022;-74
2022/03/04 07:39:49;;;;;;;21.70;8.43;;;2.40;99.90;;;;;;5038047;28;20048;-74
2022/03/04 07:42:14;;;;;;;16.15;9.35;;;2.40;99.90;;;;;;5035231;28;20032;-74
2022/03/04 07:44:40;;;;;;;13.35;7.32;;;2.40;99.90;;;;;;5037867;28;20033;-74
2022/03/04 07:47:06;;;;;;;11.05;6.97;;;2.50;99.90;;;;;;5035592;28;20408;-81
2022/03/04 07:49:31;;;;;;;10.02;6.60;;;2.50;99.90;;;;;;5040087;28;20029;-77
2022/03/04 07:51:57;;;;;;;16.77;7.80;;;2.50;99.90;;;;;;5039593;28;20044;-75
2022/03/04 07:54:23;;;;;;;18.65;6.15;;;2.60;99.90;;;;;;5039781;28;20121;-75
2022/03/04 07:56:48;;;;;;;12.10;6.88;;;2.60;99.90;;;;;;5036786;28;20474;-76
2022/03/04 07:59:14;;;;;;;19.80;7.05;;;2.60;99.90;;;;;;5039668;28;20036;-77
2022/03/04 08:01:39;;;;;;;12.20;7.82;;;2.60;99.90;;;;;;5035219;28;20378;-80
2022/03/04 08:04:06;;;;;;;13.95;7.18;;;2.60;99.90;;;;;;5039065;28;20115;-76
2022/03/04 08:06:32;;;;;;;12.63;6.20;;;2.70;99.90;;;;;;5036838;28;20029;-73
2022/03/04 08:08:57;;;;;;;16.02;7.43;;;2.70;99.90;;;;;;5038947;28;20079;-71
2022/03/04 08:11:23;;;;;;;14.15;7.75;;;2.80;99.90;;;;;;5036204;28;20032;-71
2022/03/04 08:13:48;;;;;;;12.23;7.65;;;2.80;99.90;;;;;;5039723;28;20029;-71
2022/03/04 08:16:14;;;;;;;15.02;8.15;;;2.90;99.90;;;;;;5035690;28;20140;-76
2022/03/04 08:18:40;;;;;;;15.80;8.65;;;2.80;99.90;;;;;;5039390;28;20083;-74
2022/03/04 08:21:05;;;;;;;11.52;6.72;;;2.80;99.90;;;;;;5035025;28;20029;-74
2022/03/04 08:23:31;;;;;;;14.18;7.70;;;2.90;99.90;;;;;;5037714;28;20037;-71
2022/03/04 08:26:02;;;;;;;15.18;7.22;;;2.90;99.90;;;;;;5037639;28;20029;-72
2022/03/04 08:28:28;;;;;;;13.15;7.10;;;3.00;99.90;;;;;;5037942;28;20141;-72
2022/03/04 08:30:53;;;;;;;14.23;6.90;;;3.00;99.90;;;;;;5037072;28;20104;-72
2022/03/04 08:33:19;;;;;;;14.60;8.50;;;3.00;99.90;;;;;;5037253;28;20033;-73
2022/03/04 08:35:44;;;;;;;16.10;9.70;;;3.10;99.90;;;;;;5036759;28;20025;-73
2022/03/04 08:38:10;;;;;;;17.63;8.25;;;3.10;99.90;;;;;;5034399;28;20041;-75
2022/03/04 08:40:35;;;;;;;14.80;8.23;;;3.10;99.90;;;;;;5037540;28;20057;-73
2022/03/04 08:43:01;;;;;;;16.58;8.23;;;3.00;99.90;;;;;;5037188;28;20465;-73
2022/03/04 08:45:27;;;;;;;12.57;7.05;;;3.00;99.90;;;;;;5036827;28;20089;-74
2022/03/04 08:47:52;;;;;;;12.82;7.15;;;3.00;99.90;;;;;;5037509;28;20038;-73
2022/03/04 08:50:18;;;;;;;17.80;8.90;;;3.00;99.90;;;;;;5036148;28;20096;-74
2022/03/04 08:52:43;;;;;;;15.85;7.57;;;3.00;99.90;;;;;;5035830;28;20033;-74
2022/03/04 08:55:14;;;;;;;11.43;5.97;;;3.00;99.90;;;;;;5035585;28;20041;-74
2022/03/04 08:57:41;;;;;;;19.20;7.10;;;3.00;99.90;;;;;;5037785;28;20033;-73
2022/03/04 09:00:07;;;;;;;12.98;6.50;;;2.90;99.90;;;;;;5034921;28;20048;-72
2022/03/04 09:02:32;;;;;;;;;;;2.90;99.90;;;;;;5035687;28;20503;-78
2022/03/04 09:04:59;;;;;;;13.30;7.13;;;2.80;99.90;;;;;;5037449;28;19962;-80
2022/03/04 09:07:24;;;;;;;12.80;5.82;;;3.00;99.90;;;;;;5036234;28;20017;-72
2022/03/04 09:09:50;;;;;;;15.35;7.07;;;3.20;99.90;;;;;;5036223;28;20017;-73
2022/03/04 09:12:18;;;;;;;17.20;6.95;;;3.20;99.90;;;;;;5035885;28;20029;-73
2022/03/04 09:14:44;;;;;;;17.58;6.57;;;3.20;99.90;;;;;;5036406;28;20563;-74
2022/03/04 09:17:09;;;;;;;15.75;7.88;;;3.20;99.90;;;;;;5035174;28;20030;-74
2022/03/04 09:19:35;;;;;;;14.50;6.85;;;3.20;99.90;;;;;;5035477;28;20079;-74
2022/03/04 09:22:00;;;;;;;13.52;6.30;;;3.30;99.90;;;;;;5036790;28;20029;-74
2022/03/04 09:24:28;;;;;;;13.82;7.78;;;3.40;99.90;;;;;;5034977;28;20457;-74
2022/03/04 09:26:53;;;;;;;16.05;6.88;;;3.50;99.90;;;;;;5034996;28;20025;-74
2022/03/04 09:29:19;;;;;;;12.95;6.32;;;3.60;99.90;;;;;;5036560;28;20024;-72
2022/03/04 09:31:44;;;;;;;11.05;6.15;;;3.60;99.90;;;;;;5034117;28;20030;-72
2022/03/04 09:34:10;;;;;;;15.32;7.60;;;3.70;99.90;;;;;;5034835;28;20025;-71
2022/03/04 09:36:35;;;;;;;12.32;6.40;;;3.70;99.90;;;;;;5034436;28;20037;-72
2022/03/04 09:39:01;;;;;;;10.45;6.07;;;3.60;99.90;;;;;;5035452;28;20382;-72
2022/03/04 09:41:26;;;;;;;10.10;5.85;;;3.50;99.90;;;;;;5035737;28;20037;-83
2022/03/04 09:43:55;;;;;;;12.85;5.78;;;3.50;99.90;;;;;;5034410;28;20036;-76
2022/03/04 09:46:21;;;;;;;13.10;7.13;;;3.40;99.90;;;;;;5037365;28;20032;-75
2022/03/04 09:48:48;;;;;;;14.05;6.53;;;3.30;99.90;;;;;;5035702;28;20038;-78
2022/03/04 09:51:14;;;;;;;10.25;5.82;;;3.40;99.90;;;;;;5033768;28;20450;-76
2022/03/04 09:53:40;;;;;;;8.50;4.90;;;3.50;99.90;;;;;;5035943;28;20049;-73
2022/03/04 09:56:05;;;;;;;11.18;6.13;;;3.60;99.90;;;;;;5036051;28;20485;-71
2022/03/04 09:58:31;;;;;;;13.00;6.57;;;3.60;99.90;;;;;;5036638;28;20029;-72
2022/03/04 10:00:56;;;;;;;11.40;5.05;;;3.70;99.90;;;;;;5036047;28;20120;-71
2022/03/04 10:03:44;;;;;;;12.32;5.55;;;3.70;99.90;;;;;;5039109;28;20041;-72
2022/03/04 10:06:10;;;;;;;10.57;7.13;;;3.60;99.90;;;;;;5039313;28;20538;-73
2022/03/04 10:08:43;;;;;;;11.25;5.47;;;3.50;99.90;;;;;;5038511;28;20049;-74
2022/03/04 10:11:11;;;;;;;11.25;6.18;;;3.50;99.90;;;;;;5039915;28;20032;-74
2022/03/04 10:13:51;;;;;;;10.32;5.45;;;3.50;99.90;;;;;;5039313;28;20040;-75
2022/03/04 10:16:40;;;;;;;10.52;5.65;;;3.50;99.90;;;;;;5038472;28;20037;-74
2022/03/04 10:19:15;;;;;;;15.35;6.85;;;3.60;99.90;;;;;;5039070;28;20523;-74
2022/03/04 10:21:45;;;;;;;13.13;6.43;;;3.70;99.90;;;;;;5038368;28;20331;-74
2022/03/04 10:24:10;;;;;;;11.55;5.50;;;3.70;99.90;;;;;;5039630;28;20374;-74
2022/03/04 10:26:36;;;;;;;11.55;6.78;;;3.70;99.90;;;;;;5039126;28;20024;-74
2022/03/04 10:29:22;;;;;;;12.50;6.03;;;3.90;99.90;;;;;;5038134;28;20090;-72
2022/03/04 10:32:09;;;;;;;11.87;6.53;;;3.90;99.90;;;;;;5037233;28;20472;-75
2022/03/04 10:34:56;;;;;;;13.65;6.93;;;3.70;99.90;;;;;;5040861;28;20299;-74
2022/03/04 10:37:40;;;;;;;;;;;3.50;99.90;;;;;;5037041;28;20037;-79
2022/03/04 10:40:08;;;;;;;17.45;8.10;;;3.40;99.90;;;;;;5040479;28;19913;-74
2022/03/04 10:42:51;;;;;;;15.52;7.30;;;3.30;99.90;;;;;;5038572;28;20408;-74
2022/03/04 10:45:24;;;;;;;19.65;10.43;;;3.20;99.90;;;;;;5037548;28;20043;-74
2022/03/04 10:47:55;;;;;;;19.27;9.40;;;3.20;99.90;;;;;;5037404;28;20386;-73
2022/03/04 10:50:26;;;;;;;19.15;9.52;;;3.20;99.90;;;;;;5037105;28;20033;-74
2022/03/04 10:52:58;;;;;;;16.75;8.52;;;3.30;99.90;;;;;;5038435;28;20049;-74
2022/03/04 10:55:42;;;;;;;30.95;14.48;;;3.30;99.90;;;;;;5038756;28;20029;-75
2022/03/04 10:58:20;;;;;;;50.28;25.45;;;3.40;99.90;;;;;;5039521;28;20113;-75
2022/03/04 11:00:48;;;;;;;45.45;21.50;;;3.40;99.90;;;;;;5037645;28;20017;-74
2022/03/04 11:03:20;;;;;;;29.90;16.40;;;3.50;99.90;;;;;;5037966;28;20036;-73
2022/03/04 11:05:47;;;;;;;19.63;7.55;;;3.40;99.90;;;;;;5038306;28;20108;-73
2022/03/04 11:08:13;;;;;;;16.25;8.30;;;3.30;99.90;;;;;;5038359;28;20416;-74
2022/03/04 11:10:40;;;;;;;16.33;7.65;;;3.30;99.90;;;;;;5038726;28;20036;-75
2022/03/04 11:13:07;;;;;;;;;;;3.20;99.90;;;;;;5037251;28;20032;-73
2022/03/04 11:15:34;;;;;;;25.25;13.93;;;3.00;99.90;;;;;;5037570;28;19913;-73
2022/03/04 11:18:03;;;;;;;16.83;9.27;;;3.10;99.90;;;;;;5038699;28;20038;-73
2022/03/04 11:20:29;;;;;;;59.80;27.90;;;3.10;99.90;;;;;;5037617;28;20029;-76
2022/03/04 11:22:55;;;;;;;16.65;8.55;;;3.00;99.90;;;;;;5036423;28;20047;-77
2022/03/04 11:25:22;;;;;;;10.25;5.63;;;2.90;99.90;;;;;;5039474;28;20029;-76
2022/03/04 11:27:52;;;;;;;9.27;5.43;;;3.00;99.90;;;;;;5039817;28;20044;-76
2022/03/04 11:30:31;;;;;;;10.02;3.60;;;2.90;99.90;;;;;;5039818;28;20519;-76
2022/03/04 11:33:26;;;;;;;8.38;4.68;;;3.00;99.90;;;;;;5039338;28;20037;-76
2022/03/04 11:36:16;;;;;;;6.68;3.53;;;3.10;99.90;;;;;;5037971;28;20033;-76
2022/03/04 11:38:47;;;;;;;6.18;3.38;;;3.30;99.90;;;;;;5036485;28;20041;-76
2022/03/04 11:41:34;;;;;;;5.00;2.60;;;3.40;99.90;;;;;;5035345;28;20028;-73
2022/03/04 11:44:08;;;;;;;4.00;2.45;;;3.50;99.90;;;;;;5035917;28;20114;-73
2022/03/04 11:47:02;;;;;;;7.28;4.55;;;3.60;99.90;;;;;;5036911;28;20036;-72
2022/03/04 11:49:43;;;;;;;5.53;2.92;;;3.70;99.80;;;;;;5037181;28;20022;-70
2022/03/04 11:52:09;;;;;;;13.00;6.53;;;3.70;99.70;;;;;;5038190;28;20388;-71
2022/03/04 11:54:38;;;;;;;14.02;7.25;;;3.80;99.90;;;;;;5039166;28;20026;-70
2022/03/04 11:57:25;;;;;;;14.75;7.43;;;4.10;99.90;;;;;;5035357;28;20118;-70
2022/03/04 11:59:54;;;;;;;4.40;2.35;;;4.40;99.90;;;;;;5037687;28;20496;-71
2022/03/04 12:02:27;;;;;;;6.55;3.58;;;4.70;99.70;;;;;;5037308;28;20434;-72
2022/03/04 12:05:31;;;;;;;7.20;4.10;;;4.70;99.20;;;;;;5038549;28;20321;-72
2022/03/04 12:07:56;;;;;;;8.40;3.25;;;4.80;99.00;;;;;;5015922;28;20401;-72
2022/03/04 12:10:34;;;;;;;5.88;3.08;;;4.80;99.30;;;;;;5037581;28;20040;-72
2022/03/04 12:13:05;;;;;;;5.97;2.85;;;4.80;98.70;;;;;;5036423;28;20025;-72
2022/03/04 12:15:42;;;;;;;6.28;3.25;;;4.80;99.00;;;;;;5035514;28;20589;-74
2022/03/04 12:18:24;;;;;;;;;;;4.80;98.70;;;;;;5039307;28;20047;-73
2022/03/04 12:21:13;;;;;;;17.73;10.05;;;4.80;99.00;;;;;;5034567;28;20042;-73
2022/03/04 12:23:42;;;;;;;14.65;7.38;;;4.80;98.60;;;;;;5036439;28;20034;-72
2022/03/04 12:26:11;;;;;;;3.38;2.45;;;4.70;98.40;;;;;;5035538;28;20032;-72
2022/03/04 12:28:39;;;;;;;6.15;3.08;;;4.50;98.70;;;;;;5035772;28;20033;-72
2022/03/04 12:31:05;;;;;;;41.42;19.10;;;4.50;99.00;;;;;;5034396;28;20155;-73
2022/03/04 12:33:32;;;;;;;10.25;4.35;;;4.50;98.80;;;;;;5038857;28;20127;-73
2022/03/04 12:35:58;;;;;;;15.23;7.20;;;4.30;98.70;;;;;;5037181;28;20522;-70
2022/03/04 12:38:49;;;;;;;9.25;4.05;;;4.30;98.90;;;;;;5037178;28;20064;-72
2022/03/04 12:41:17;;;;;;;5.97;2.97;;;4.30;99.00;;;;;;5035981;28;20091;-72
2022/03/04 12:43:51;;;;;;;8.40;3.38;;;4.20;98.90;;;;;;5035847;28;20063;-71
2022/03/04 12:46:19;;;;;;;7.95;4.25;;;4.20;99.30;;;;;;5035667;28;20041;-71
2022/03/04 12:48:44;;;;;;;14.63;7.75;;;4.20;99.20;;;;;;5035569;28;20393;-72
2022/03/04 12:51:25;;;;;;;62.80;26.52;;;4.10;98.90;;;;;;5034103;28;20025;-72
2022/03/04 12:53:52;;;;;;;149.23;77.72;;;4.10;99.20;;;;;;5036386;28;20061;-72